sensor_id;sensor_type;location;lat;lon;timestamp;pressure;altitude;pressure_sealevel;temperature;humidity
47763;BME280;33526;42.690;23.322;2023-03-16T00:01:34;94216.47;;;3.12;88.07
47763;BME280;33526;42.690;23.322;2023-03-16T00:04:00;94227.38;;;3.02;87.83
47763;BME280;33526;42.690;23.322;2023-03-16T00:06:26;94222.09;;;3.08;88.58
47763;BME280;33526;42.690;23.322;2023-03-16T00:08:52;94223.72;;;3.05;88.96
47763;BME280;33526;42.690;23.322;2023-03-16T00:11:23;94236.34;;;3.06;88.00
47763;BME280;33526;42.690;23.322;2023-03-16T00:13:48;94236.78;;;3.05;89.06
47763;BME280;33526;42.690;23.322;2023-03-16T00:16:13;94232.88;;;2.90;88.31
47763;BME280;33526;42.690;23.322;2023-03-16T00:18:41;94241.59;;;2.88;89.31
47763;BME280;33526;42.690;23.322;2023-03-16T00:21:06;94233.78;;;2.86;89.43
47763;BME280;33526;42.690;23.322;2023-03-16T00:23:32;94232.22;;;2.85;91.58
47763;BME280;33526;42.690;23.322;2023-03-16T00:26:00;94240.41;;;2.89;90.52
47763;BME280;33526;42.690;23.322;2023-03-16T00:28:27;94238.41;;;3.02;90.91
47763;BME280;33526;42.690;23.322;2023-03-16T00:30:52;94229.91;;;3.10;89.35
47763;BME280;33526;42.690;23.322;2023-03-16T00:33:23;94234.13;;;3.01;88.33
47763;BME280;33526;42.690;23.322;2023-03-16T00:35:48;94238.53;;;2.99;88.83
47763;BME280;33526;42.690;23.322;2023-03-16T00:38:14;94251.66;;;2.95;89.52
47763;BME280;33526;42.690;23.322;2023-03-16T00:40:39;94245.84;;;3.05;90.50
47763;BME280;33526;42.690;23.322;2023-03-16T00:43:04;94247.19;;;3.14;89.57
47763;BME280;33526;42.690;23.322;2023-03-16T00:45:31;94253.25;;;3.09;90.00
47763;BME280;33526;42.690;23.322;2023-03-16T00:47:56;94253.78;;;3.03;90.43
47763;BME280;33526;42.690;23.322;2023-03-16T00:50:21;94247.94;;;3.01;90.00
47763;BME280;33526;42.690;23.322;2023-03-16T00:52:47;94242.94;;;2.96;89.89
47763;BME280;33526;42.690;23.322;2023-03-16T00:55:12;94250.69;;;3.01;88.65
47763;BME280;33526;42.690;23.322;2023-03-16T00:57:38;94255.50;;;2.84;88.35
47763;BME280;33526;42.690;23.322;2023-03-16T01:00:03;94255.06;;;2.86;89.21
47763;BME280;33526;42.690;23.322;2023-03-16T01:02:37;94252.41;;;2.82;89.07
47763;BME280;33526;42.690;23.322;2023-03-16T01:05:02;94256.16;;;2.76;89.79
47763;BME280;33526;42.690;23.322;2023-03-16T01:07:29;94250.28;;;2.74;89.95
47763;BME280;33526;42.690;23.322;2023-03-16T01:09:56;94248.56;;;2.80;90.47
47763;BME280;33526;42.690;23.322;2023-03-16T01:12:22;94259.25;;;2.78;89.75
47763;BME280;33526;42.690;23.322;2023-03-16T01:14:47;94254.91;;;2.64;89.20
47763;BME280;33526;42.690;23.322;2023-03-16T01:17:13;94242.88;;;2.58;90.61
47763;BME280;33526;42.690;23.322;2023-03-16T01:19:39;94253.38;;;2.63;91.11
47763;BME280;33526;42.690;23.322;2023-03-16T01:22:05;94248.63;;;2.63;90.77
47763;BME280;33526;42.690;23.322;2023-03-16T01:24:30;94252.69;;;2.59;90.73
47763;BME280;33526;42.690;23.322;2023-03-16T01:26:56;94251.72;;;2.65;90.10
47763;BME280;33526;42.690;23.322;2023-03-16T01:29:21;94250.53;;;2.50;88.09
47763;BME280;33526;42.690;23.322;2023-03-16T01:31:46;94255.09;;;2.27;87.56
47763;BME280;33526;42.690;23.322;2023-03-16T01:34:14;94257.16;;;2.40;89.42
47763;BME280;33526;42.690;23.322;2023-03-16T01:36:42;94262.56;;;2.43;89.46
47763;BME280;33526;42.690;23.322;2023-03-16T01:39:10;94267.66;;;2.28;87.28
47763;BME280;33526;42.690;23.322;2023-03-16T01:41:36;94268.56;;;2.25;87.24
47763;BME280;33526;42.690;23.322;2023-03-16T01:44:01;94268.47;;;2.29;87.64
47763;BME280;33526;42.690;23.322;2023-03-16T01:46:27;94274.06;;;2.25;88.06
47763;BME280;33526;42.690;23.322;2023-03-16T01:51:38;94272.53;;;2.24;88.04
47763;BME280;33526;42.690;23.322;2023-03-16T01:54:15;94275.88;;;2.16;87.16
47763;BME280;33526;42.690;23.322;2023-03-16T01:59:16;94276.31;;;2.14;87.17
47763;BME280;33526;42.690;23.322;2023-03-16T02:01:42;94283.72;;;2.17;88.42
47763;BME280;33526;42.690;23.322;2023-03-16T02:06:52;94283.28;;;2.35;89.08
47763;BME280;33526;42.690;23.322;2023-03-16T02:09:19;94293.72;;;2.27;88.95
47763;BME280;33526;42.690;23.322;2023-03-16T02:11:44;94291.34;;;2.13;87.65
47763;BME280;33526;42.690;23.322;2023-03-16T02:14:10;94292.88;;;1.98;88.34
47763;BME280;33526;42.690;23.322;2023-03-16T02:16:36;94300.81;;;1.96;89.59
47763;BME280;33526;42.690;23.322;2023-03-16T02:19:02;94305.47;;;1.99;89.88
47763;BME280;33526;42.690;23.322;2023-03-16T02:24:08;94313.72;;;2.15;89.62
47763;BME280;33526;42.690;23.322;2023-03-16T02:26:53;94314.59;;;2.12;90.07
47763;BME280;33526;42.690;23.322;2023-03-16T02:31:45;94314.09;;;2.01;91.70
47763;BME280;33526;42.690;23.322;2023-03-16T02:34:12;94321.50;;;1.87;91.42
47763;BME280;33526;42.690;23.322;2023-03-16T02:36:38;94327.03;;;1.87;92.72
47763;BME280;33526;42.690;23.322;2023-03-16T02:39:05;94317.19;;;1.86;94.67
47763;BME280;33526;42.690;23.322;2023-03-16T02:41:31;94326.56;;;1.72;94.19
47763;BME280;33526;42.690;23.322;2023-03-16T02:43:58;94318.78;;;1.67;94.31
47763;BME280;33526;42.690;23.322;2023-03-16T02:46:26;94319.84;;;1.74;95.43
47763;BME280;33526;42.690;23.322;2023-03-16T02:51:17;94324.16;;;1.75;95.57
47763;BME280;33526;42.690;23.322;2023-03-16T02:53:42;94328.38;;;1.63;95.95
47763;BME280;33526;42.690;23.322;2023-03-16T02:56:07;94327.34;;;1.73;96.84
47763;BME280;33526;42.690;23.322;2023-03-16T02:58:33;94335.16;;;1.75;96.58
47763;BME280;33526;42.690;23.322;2023-03-16T03:00:58;94330.78;;;1.77;96.60
47763;BME280;33526;42.690;23.322;2023-03-16T03:03:24;94343.00;;;1.76;96.49
47763;BME280;33526;42.690;23.322;2023-03-16T03:05:49;94334.75;;;1.92;96.25
47763;BME280;33526;42.690;23.322;2023-03-16T03:08:15;94332.53;;;1.87;95.64
47763;BME280;33526;42.690;23.322;2023-03-16T03:10:40;94337.34;;;1.83;95.45
47763;BME280;33526;42.690;23.322;2023-03-16T03:13:05;94341.22;;;1.86;95.84
47763;BME280;33526;42.690;23.322;2023-03-16T03:15:34;94344.22;;;1.75;94.16
47763;BME280;33526;42.690;23.322;2023-03-16T03:17:59;94351.09;;;1.67;94.33
47763;BME280;33526;42.690;23.322;2023-03-16T03:20:24;94356.97;;;1.85;96.18
47763;BME280;33526;42.690;23.322;2023-03-16T03:22:50;94350.28;;;1.86;94.97
47763;BME280;33526;42.690;23.322;2023-03-16T03:25:16;94354.19;;;1.69;94.64
47763;BME280;33526;42.690;23.322;2023-03-16T03:27:42;94356.84;;;1.56;93.86
47763;BME280;33526;42.690;23.322;2023-03-16T03:30:09;94354.38;;;1.62;95.20
47763;BME280;33526;42.690;23.322;2023-03-16T03:32:34;94368.72;;;1.53;94.03
47763;BME280;33526;42.690;23.322;2023-03-16T03:35:00;94359.16;;;1.41;94.64
47763;BME280;33526;42.690;23.322;2023-03-16T03:37:25;94363.59;;;1.55;95.60
47763;BME280;33526;42.690;23.322;2023-03-16T03:39:50;94366.56;;;1.44;94.74
47763;BME280;33526;42.690;23.322;2023-03-16T03:42:17;94368.19;;;1.42;95.26
47763;BME280;33526;42.690;23.322;2023-03-16T03:44:42;94366.88;;;1.30;95.02
47763;BME280;33526;42.690;23.322;2023-03-16T03:47:08;94363.72;;;1.48;95.87
47763;BME280;33526;42.690;23.322;2023-03-16T03:49:33;94367.75;;;1.43;95.19
47763;BME280;33526;42.690;23.322;2023-03-16T03:51:58;94382.94;;;1.51;95.10
47763;BME280;33526;42.690;23.322;2023-03-16T03:54:26;94386.13;;;1.50;94.90
47763;BME280;33526;42.690;23.322;2023-03-16T03:56:51;94393.88;;;1.55;94.73
47763;BME280;33526;42.690;23.322;2023-03-16T03:59:16;94391.75;;;1.63;94.77
47763;BME280;33526;42.690;23.322;2023-03-16T04:01:42;94396.91;;;1.61;93.91
47763;BME280;33526;42.690;23.322;2023-03-16T04:04:07;94392.31;;;1.54;93.31
47763;BME280;33526;42.690;23.322;2023-03-16T04:06:32;94398.75;;;1.47;93.59
47763;BME280;33526;42.690;23.322;2023-03-16T04:08:58;94393.75;;;1.42;93.03
47763;BME280;33526;42.690;23.322;2023-03-16T04:11:23;94405.47;;;1.46;93.82
47763;BME280;33526;42.690;23.322;2023-03-16T04:13:50;94398.91;;;1.40;93.50
47763;BME280;33526;42.690;23.322;2023-03-16T04:16:15;94389.88;;;1.40;94.33
47763;BME280;33526;42.690;23.322;2023-03-16T04:18:41;94406.91;;;1.34;93.96
47763;BME280;33526;42.690;23.322;2023-03-16T04:21:07;94394.97;;;1.41;94.11
47763;BME280;33526;42.690;23.322;2023-03-16T04:23:36;94408.31;;;1.43;93.97
47763;BME280;33526;42.690;23.322;2023-03-16T04:26:02;94405.28;;;1.37;93.63
47763;BME280;33526;42.690;23.322;2023-03-16T04:28:27;94406.75;;;1.42;93.87
47763;BME280;33526;42.690;23.322;2023-03-16T04:30:53;94405.63;;;1.39;93.96
47763;BME280;33526;42.690;23.322;2023-03-16T04:33:21;94415.22;;;1.31;93.77
47763;BME280;33526;42.690;23.322;2023-03-16T04:35:47;94419.25;;;1.46;94.25
47763;BME280;33526;42.690;23.322;2023-03-16T04:38:12;94414.28;;;1.58;93.88
47763;BME280;33526;42.690;23.322;2023-03-16T04:40:38;94419.81;;;1.58;93.83
47763;BME280;33526;42.690;23.322;2023-03-16T04:43:03;94390.28;;;1.38;93.80
47763;BME280;33526;42.690;23.322;2023-03-16T04:45:28;94437.03;;;1.62;92.63
47763;BME280;33526;42.690;23.322;2023-03-16T04:47:53;94442.69;;;1.55;92.46
47763;BME280;33526;42.690;23.322;2023-03-16T04:50:19;94445.88;;;1.53;92.50
47763;BME280;33526;42.690;23.322;2023-03-16T04:52:44;94440.88;;;1.48;92.39
47763;BME280;33526;42.690;23.322;2023-03-16T04:55:09;94454.28;;;1.46;91.84
47763;BME280;33526;42.690;23.322;2023-03-16T04:57:35;94446.09;;;1.42;91.98
47763;BME280;33526;42.690;23.322;2023-03-16T05:00:00;94454.00;;;1.40;91.63
47763;BME280;33526;42.690;23.322;2023-03-16T05:02:25;94457.75;;;1.50;92.58
47763;BME280;33526;42.690;23.322;2023-03-16T05:04:50;94459.22;;;1.55;92.47
47763;BME280;33526;42.690;23.322;2023-03-16T05:07:17;94457.84;;;1.46;91.66
47763;BME280;33526;42.690;23.322;2023-03-16T05:09:43;94455.69;;;1.54;92.21
47763;BME280;33526;42.690;23.322;2023-03-16T05:12:08;94457.75;;;1.50;90.43
47763;BME280;33526;42.690;23.322;2023-03-16T05:14:34;94470.25;;;1.55;91.10
47763;BME280;33526;42.690;23.322;2023-03-16T05:17:02;94467.84;;;1.57;91.06
47763;BME280;33526;42.690;23.322;2023-03-16T05:19:30;94472.72;;;1.69;91.05
47763;BME280;33526;42.690;23.322;2023-03-16T05:21:55;94473.13;;;1.67;90.58
47763;BME280;33526;42.690;23.322;2023-03-16T05:24:21;94479.88;;;1.46;89.03
47763;BME280;33526;42.690;23.322;2023-03-16T05:26:47;94476.09;;;1.57;89.70
47763;BME280;33526;42.690;23.322;2023-03-16T05:29:13;94481.06;;;1.45;88.96
47763;BME280;33526;42.690;23.322;2023-03-16T05:31:38;94490.97;;;1.43;90.06
47763;BME280;33526;42.690;23.322;2023-03-16T05:34:03;94501.63;;;1.41;89.92
47763;BME280;33526;42.690;23.322;2023-03-16T05:36:29;94491.72;;;1.43;90.08
47763;BME280;33526;42.690;23.322;2023-03-16T05:38:54;94497.09;;;1.50;90.49
47763;BME280;33526;42.690;23.322;2023-03-16T05:41:19;94493.00;;;1.39;89.51
47763;BME280;33526;42.690;23.322;2023-03-16T05:43:45;94495.75;;;1.39;90.23
47763;BME280;33526;42.690;23.322;2023-03-16T05:46:10;94504.31;;;1.44;91.05
47763;BME280;33526;42.690;23.322;2023-03-16T05:48:36;94499.22;;;1.43;91.04
47763;BME280;33526;42.690;23.322;2023-03-16T05:51:01;94510.66;;;1.41;90.94
47763;BME280;33526;42.690;23.322;2023-03-16T05:53:30;94510.31;;;1.59;92.34
47763;BME280;33526;42.690;23.322;2023-03-16T05:55:55;94515.97;;;1.52;91.28
47763;BME280;33526;42.690;23.322;2023-03-16T05:58:20;94520.56;;;1.59;91.82
47763;BME280;33526;42.690;23.322;2023-03-16T06:00:46;94518.09;;;1.64;91.77
47763;BME280;33526;42.690;23.322;2023-03-16T06:03:11;94514.34;;;1.55;90.76
47763;BME280;33526;42.690;23.322;2023-03-16T06:05:37;94523.03;;;1.53;91.17
47763;BME280;33526;42.690;23.322;2023-03-16T06:08:02;94519.16;;;1.50;89.90
47763;BME280;33526;42.690;23.322;2023-03-16T06:10:27;94529.88;;;1.65;91.39
47763;BME280;33526;42.690;23.322;2023-03-16T06:12:52;94527.13;;;1.85;91.19
47763;BME280;33526;42.690;23.322;2023-03-16T06:15:18;94533.97;;;1.97;89.85
47763;BME280;33526;42.690;23.322;2023-03-16T06:17:46;94529.16;;;2.01;88.88
47763;BME280;33526;42.690;23.322;2023-03-16T06:20:12;94531.84;;;2.04;87.46
47763;BME280;33526;42.690;23.322;2023-03-16T06:22:38;94545.41;;;2.15;86.94
47763;BME280;33526;42.690;23.322;2023-03-16T06:25:04;94544.72;;;2.11;86.85
47763;BME280;33526;42.690;23.322;2023-03-16T06:27:30;94542.53;;;2.02;85.17
47763;BME280;33526;42.690;23.322;2023-03-16T06:29:55;94542.38;;;2.09;85.89
47763;BME280;33526;42.690;23.322;2023-03-16T06:32:20;94559.13;;;2.19;86.25
47763;BME280;33526;42.690;23.322;2023-03-16T06:34:46;94563.88;;;2.18;85.46
47763;BME280;33526;42.690;23.322;2023-03-16T06:37:11;94568.09;;;2.23;85.47
47763;BME280;33526;42.690;23.322;2023-03-16T06:39:37;94567.25;;;2.26;85.19
47763;BME280;33526;42.690;23.322;2023-03-16T06:42:02;94569.44;;;2.35;84.96
47763;BME280;33526;42.690;23.322;2023-03-16T06:44:28;94570.13;;;2.39;85.18
47763;BME280;33526;42.690;23.322;2023-03-16T06:46:54;94578.97;;;2.30;84.70
47763;BME280;33526;42.690;23.322;2023-03-16T06:49:19;94573.19;;;2.24;83.04
47763;BME280;33526;42.690;23.322;2023-03-16T06:51:45;94591.31;;;2.05;82.76
47763;BME280;33526;42.690;23.322;2023-03-16T06:54:10;94583.25;;;1.95;83.85
47763;BME280;33526;42.690;23.322;2023-03-16T06:56:35;94590.94;;;1.83;84.29
47763;BME280;33526;42.690;23.322;2023-03-16T06:59:01;94606.44;;;1.77;85.61
47763;BME280;33526;42.690;23.322;2023-03-16T07:01:26;94606.66;;;1.86;85.22
47763;BME280;33526;42.690;23.322;2023-03-16T07:03:51;94602.97;;;1.73;85.35
47763;BME280;33526;42.690;23.322;2023-03-16T07:06:16;94617.81;;;1.79;86.28
47763;BME280;33526;42.690;23.322;2023-03-16T07:08:42;94601.13;;;1.86;86.61
47763;BME280;33526;42.690;23.322;2023-03-16T07:11:08;94607.41;;;1.87;86.81
47763;BME280;33526;42.690;23.322;2023-03-16T07:13:33;94621.41;;;1.96;87.30
47763;BME280;33526;42.690;23.322;2023-03-16T07:15:59;94612.25;;;2.03;86.84
47763;BME280;33526;42.690;23.322;2023-03-16T07:18:25;94623.19;;;2.26;87.71
47763;BME280;33526;42.690;23.322;2023-03-16T07:20:51;94614.63;;;2.41;86.31
47763;BME280;33526;42.690;23.322;2023-03-16T07:23:17;94618.31;;;2.34;86.42
47763;BME280;33526;42.690;23.322;2023-03-16T07:25:42;94620.78;;;2.28;86.34
47763;BME280;33526;42.690;23.322;2023-03-16T07:28:08;94618.31;;;2.34;85.96
47763;BME280;33526;42.690;23.322;2023-03-16T07:30:33;94618.53;;;2.43;86.19
47763;BME280;33526;42.690;23.322;2023-03-16T07:32:59;94631.75;;;2.32;83.86
47763;BME280;33526;42.690;23.322;2023-03-16T07:35:25;94627.72;;;2.37;84.86
47763;BME280;33526;42.690;23.322;2023-03-16T07:37:51;94619.94;;;2.32;84.72
47763;BME280;33526;42.690;23.322;2023-03-16T07:40:16;94629.38;;;2.34;84.32
47763;BME280;33526;42.690;23.322;2023-03-16T07:42:42;94642.78;;;2.32;84.98
47763;BME280;33526;42.690;23.322;2023-03-16T07:45:08;94632.75;;;2.42;84.66
47763;BME280;33526;42.690;23.322;2023-03-16T07:47:34;94634.59;;;2.48;84.02
47763;BME280;33526;42.690;23.322;2023-03-16T07:49:59;94639.13;;;2.75;84.60
47763;BME280;33526;42.690;23.322;2023-03-16T07:52:25;94640.75;;;2.73;81.40
47763;BME280;33526;42.690;23.322;2023-03-16T07:54:50;94644.91;;;2.81;82.08
47763;BME280;33526;42.690;23.322;2023-03-16T07:57:16;94652.22;;;2.71;79.37
47763;BME280;33526;42.690;23.322;2023-03-16T07:59:41;94639.88;;;2.59;80.41
47763;BME280;33526;42.690;23.322;2023-03-16T08:02:14;94648.13;;;2.79;80.92
47763;BME280;33526;42.690;23.322;2023-03-16T08:04:39;94641.13;;;2.91;79.83
47763;BME280;33526;42.690;23.322;2023-03-16T08:07:06;94649.50;;;2.87;78.46
47763;BME280;33526;42.690;23.322;2023-03-16T08:09:32;94656.34;;;2.99;79.25
47763;BME280;33526;42.690;23.322;2023-03-16T08:12:00;94651.25;;;2.98;79.65
47763;BME280;33526;42.690;23.322;2023-03-16T08:14:25;94646.25;;;3.25;79.23
47763;BME280;33526;42.690;23.322;2023-03-16T08:16:51;94650.66;;;3.06;79.97
47763;BME280;33526;42.690;23.322;2023-03-16T08:19:16;94652.13;;;3.28;80.50
47763;BME280;33526;42.690;23.322;2023-03-16T08:21:41;94649.28;;;3.31;78.40
47763;BME280;33526;42.690;23.322;2023-03-16T08:24:07;94661.03;;;3.35;78.29
47763;BME280;33526;42.690;23.322;2023-03-16T08:26:33;94670.25;;;3.29;80.05
47763;BME280;33526;42.690;23.322;2023-03-16T08:28:58;94666.03;;;3.24;79.23
47763;BME280;33526;42.690;23.322;2023-03-16T08:31:27;94669.25;;;3.22;78.28
47763;BME280;33526;42.690;23.322;2023-03-16T08:33:52;94675.34;;;3.14;77.63
47763;BME280;33526;42.690;23.322;2023-03-16T08:36:18;94676.94;;;2.95;78.15
47763;BME280;33526;42.690;23.322;2023-03-16T08:38:45;94673.75;;;2.96;79.19
47763;BME280;33526;42.690;23.322;2023-03-16T08:41:11;94669.72;;;3.01;79.50
47763;BME280;33526;42.690;23.322;2023-03-16T08:43:36;94669.97;;;2.90;77.66
47763;BME280;33526;42.690;23.322;2023-03-16T08:46:02;94671.00;;;2.96;77.38
47763;BME280;33526;42.690;23.322;2023-03-16T08:48:29;94677.94;;;3.21;79.18
47763;BME280;33526;42.690;23.322;2023-03-16T08:50:55;94685.56;;;3.33;77.94
47763;BME280;33526;42.690;23.322;2023-03-16T08:53:20;94688.34;;;3.50;77.39
47763;BME280;33526;42.690;23.322;2023-03-16T08:55:46;94681.75;;;3.60;75.30
47763;BME280;33526;42.690;23.322;2023-03-16T08:58:11;94687.63;;;3.45;75.15
47763;BME280;33526;42.690;23.322;2023-03-16T09:00:38;94685.41;;;3.57;74.99
47763;BME280;33526;42.690;23.322;2023-03-16T09:03:04;94694.03;;;3.42;74.86
47763;BME280;33526;42.690;23.322;2023-03-16T09:05:29;94692.56;;;3.38;74.25
47763;BME280;33526;42.690;23.322;2023-03-16T09:07:54;94681.91;;;3.20;74.17
47763;BME280;33526;42.690;23.322;2023-03-16T09:10:20;94683.81;;;3.39;75.82
47763;BME280;33526;42.690;23.322;2023-03-16T09:12:50;94696.78;;;3.59;76.33
47763;BME280;33526;42.690;23.322;2023-03-16T09:15:16;94694.38;;;3.61;73.49
47763;BME280;33526;42.690;23.322;2023-03-16T09:17:42;94698.25;;;3.63;73.49
47763;BME280;33526;42.690;23.322;2023-03-16T09:20:09;94704.31;;;3.75;75.29
47763;BME280;33526;42.690;23.322;2023-03-16T09:22:35;94701.97;;;3.73;73.09
47763;BME280;33526;42.690;23.322;2023-03-16T09:25:01;94704.66;;;3.44;74.21
47763;BME280;33526;42.690;23.322;2023-03-16T09:27:27;94709.56;;;3.53;75.44
47763;BME280;33526;42.690;23.322;2023-03-16T09:29:52;94705.25;;;3.35;73.81
47763;BME280;33526;42.690;23.322;2023-03-16T09:32:20;94702.84;;;3.37;74.81
47763;BME280;33526;42.690;23.322;2023-03-16T09:34:48;94706.53;;;3.31;74.02
47763;BME280;33526;42.690;23.322;2023-03-16T09:37:15;94704.53;;;3.31;73.73
47763;BME280;33526;42.690;23.322;2023-03-16T09:39:41;94705.34;;;3.32;73.56
47763;BME280;33526;42.690;23.322;2023-03-16T09:42:22;94711.91;;;3.38;73.84
47763;BME280;33526;42.690;23.322;2023-03-16T09:45:05;94696.16;;;3.18;73.09
47763;BME280;33526;42.690;23.322;2023-03-16T09:47:33;94708.00;;;3.19;74.63
47763;BME280;33526;42.690;23.322;2023-03-16T09:50:01;94720.34;;;3.31;74.99
47763;BME280;33526;42.690;23.322;2023-03-16T09:53:04;94725.53;;;2.92;75.03
47763;BME280;33526;42.690;23.322;2023-03-16T09:55:32;94715.53;;;2.98;75.60
47763;BME280;33526;42.690;23.322;2023-03-16T09:57:59;94714.69;;;3.01;77.04
47763;BME280;33526;42.690;23.322;2023-03-16T10:00:26;94721.06;;;2.98;78.20
47763;BME280;33526;42.690;23.322;2023-03-16T10:05:26;94720.59;;;3.20;78.22
47763;BME280;33526;42.690;23.322;2023-03-16T10:16:13;94721.00;;;3.55;75.78
47763;BME280;33526;42.690;23.322;2023-03-16T10:18:52;94720.19;;;3.38;73.89
47763;BME280;33526;42.690;23.322;2023-03-16T10:21:42;94724.59;;;3.52;73.44
47763;BME280;33526;42.690;23.322;2023-03-16T10:24:20;94721.41;;;3.53;72.90
47763;BME280;33526;42.690;23.322;2023-03-16T10:26:52;94722.19;;;3.54;72.65
47763;BME280;33526;42.690;23.322;2023-03-16T10:29:19;94719.75;;;3.39;72.45
47763;BME280;33526;42.690;23.322;2023-03-16T10:31:45;94716.91;;;3.43;71.58
47763;BME280;33526;42.690;23.322;2023-03-16T10:34:14;94715.25;;;3.45;74.19
47763;BME280;33526;42.690;23.322;2023-03-16T10:36:49;94717.44;;;3.54;73.77
47763;BME280;33526;42.690;23.322;2023-03-16T10:39:18;94717.16;;;3.32;74.26
47763;BME280;33526;42.690;23.322;2023-03-16T10:41:44;94710.59;;;3.26;75.11
47763;BME280;33526;42.690;23.322;2023-03-16T10:44:13;94714.75;;;3.34;75.71
47763;BME280;33526;42.690;23.322;2023-03-16T10:46:46;94721.66;;;3.42;75.75
47763;BME280;33526;42.690;23.322;2023-03-16T10:49:25;94716.75;;;3.67;76.03
47763;BME280;33526;42.690;23.322;2023-03-16T10:51:55;94719.34;;;3.74;73.33
47763;BME280;33526;42.690;23.322;2023-03-16T10:56:49;94716.66;;;3.70;72.14
47763;BME280;33526;42.690;23.322;2023-03-16T10:59:24;94721.94;;;3.64;72.73
47763;BME280;33526;42.690;23.322;2023-03-16T11:01:52;94716.31;;;3.68;72.15
47763;BME280;33526;42.690;23.322;2023-03-16T11:04:18;94711.09;;;3.87;71.72
47763;BME280;33526;42.690;23.322;2023-03-16T11:06:53;94710.34;;;3.86;70.94
47763;BME280;33526;42.690;23.322;2023-03-16T11:09:40;94721.13;;;3.97;71.42
47763;BME280;33526;42.690;23.322;2023-03-16T11:12:14;94718.88;;;3.92;71.35
47763;BME280;33526;42.690;23.322;2023-03-16T11:14:45;94726.75;;;3.93;69.98
47763;BME280;33526;42.690;23.322;2023-03-16T11:17:17;94725.03;;;3.67;70.44
47763;BME280;33526;42.690;23.322;2023-03-16T11:22:12;94726.16;;;3.86;71.21
47763;BME280;33526;42.690;23.322;2023-03-16T11:27:08;94720.47;;;3.93;70.02
47763;BME280;33526;42.690;23.322;2023-03-16T11:32:32;94725.44;;;4.14;69.43
47763;BME280;33526;42.690;23.322;2023-03-16T11:34:59;94719.63;;;4.09;69.69
47763;BME280;33526;42.690;23.322;2023-03-16T11:37:31;94721.00;;;4.17;68.99
47763;BME280;33526;42.690;23.322;2023-03-16T11:50:12;94722.00;;;3.94;70.95
47763;BME280;33526;42.690;23.322;2023-03-16T11:55:20;94721.81;;;4.01;70.61
47763;BME280;33526;42.690;23.322;2023-03-16T12:08:08;94733.25;;;3.87;72.01
47763;BME280;33526;42.690;23.322;2023-03-16T12:10:50;94746.91;;;3.77;70.49
47763;BME280;33526;42.690;23.322;2023-03-16T12:15:51;94743.63;;;3.82;71.45
47763;BME280;33526;42.690;23.322;2023-03-16T12:19:01;94749.50;;;3.85;71.10
47763;BME280;33526;42.690;23.322;2023-03-16T12:21:18;94745.88;;;3.71;71.07
47763;BME280;33526;42.690;23.322;2023-03-16T12:26:18;94752.50;;;3.41;72.61
47763;BME280;33526;42.690;23.322;2023-03-16T12:28:44;94755.03;;;3.68;72.86
47763;BME280;33526;42.690;23.322;2023-03-16T12:39:06;94761.25;;;3.72;72.75
47763;BME280;33526;42.690;23.322;2023-03-16T12:44:17;94772.31;;;3.72;73.09
47763;BME280;33526;42.690;23.322;2023-03-16T12:49:14;94767.56;;;3.73;73.13
47763;BME280;33526;42.690;23.322;2023-03-16T12:51:42;94775.31;;;3.61;73.83
47763;BME280;33526;42.690;23.322;2023-03-16T12:54:23;94779.88;;;3.35;74.54
47763;BME280;33526;42.690;23.322;2023-03-16T12:56:49;94782.38;;;3.10;75.63
47763;BME280;33526;42.690;23.322;2023-03-16T12:59:17;94783.78;;;3.18;78.37
47763;BME280;33526;42.690;23.322;2023-03-16T13:01:43;94776.50;;;3.08;79.14
47763;BME280;33526;42.690;23.322;2023-03-16T13:04:13;94787.34;;;2.98;80.27
47763;BME280;33526;42.690;23.322;2023-03-16T13:06:47;94791.56;;;2.86;80.77
47763;BME280;33526;42.690;23.322;2023-03-16T13:09:19;94791.03;;;2.72;81.70
47763;BME280;33526;42.690;23.322;2023-03-16T13:11:47;94790.25;;;2.91;83.05
47763;BME280;33526;42.690;23.322;2023-03-16T13:17:06;94792.72;;;3.05;81.97
47763;BME280;33526;42.690;23.322;2023-03-16T13:20:01;94796.72;;;3.04;83.36
47763;BME280;33526;42.690;23.322;2023-03-16T13:22:39;94797.88;;;3.23;82.92
47763;BME280;33526;42.690;23.322;2023-03-16T13:27:35;94802.25;;;3.41;83.45
47763;BME280;33526;42.690;23.322;2023-03-16T13:30:15;94793.69;;;3.35;82.35
47763;BME280;33526;42.690;23.322;2023-03-16T13:32:40;94799.91;;;3.39;83.04
47763;BME280;33526;42.690;23.322;2023-03-16T13:35:06;94803.88;;;3.38;83.83
47763;BME280;33526;42.690;23.322;2023-03-16T13:37:33;94805.09;;;3.37;82.75
47763;BME280;33526;42.690;23.322;2023-03-16T13:39:59;94803.47;;;3.20;80.75
47763;BME280;33526;42.690;23.322;2023-03-16T13:42:28;94824.03;;;3.19;80.99
47763;BME280;33526;42.690;23.322;2023-03-16T13:44:54;94804.28;;;3.00;80.64
47763;BME280;33526;42.690;23.322;2023-03-16T13:47:20;94819.38;;;2.96;80.57
47763;BME280;33526;42.690;23.322;2023-03-16T13:49:49;94818.81;;;3.04;81.94
47763;BME280;33526;42.690;23.322;2023-03-16T13:52:36;94820.41;;;3.02;81.26
47763;BME280;33526;42.690;23.322;2023-03-16T13:55:02;94820.91;;;3.17;80.84
47763;BME280;33526;42.690;23.322;2023-03-16T13:57:29;94823.59;;;3.00;80.67
47763;BME280;33526;42.690;23.322;2023-03-16T14:00:00;94823.31;;;3.15;81.79
47763;BME280;33526;42.690;23.322;2023-03-16T14:02:26;94824.03;;;3.19;79.69
47763;BME280;33526;42.690;23.322;2023-03-16T14:04:53;94830.41;;;3.16;81.41
47763;BME280;33526;42.690;23.322;2023-03-16T14:07:19;94827.69;;;3.32;82.03
47763;BME280;33526;42.690;23.322;2023-03-16T14:09:45;94827.16;;;3.01;80.09
47763;BME280;33526;42.690;23.322;2023-03-16T14:12:13;94829.72;;;3.12;81.42
47763;BME280;33526;42.690;23.322;2023-03-16T14:14:39;94836.78;;;3.13;79.95
47763;BME280;33526;42.690;23.322;2023-03-16T14:17:11;94841.06;;;2.97;80.74
47763;BME280;33526;42.690;23.322;2023-03-16T14:22:13;94841.25;;;3.06;81.26
47763;BME280;33526;42.690;23.322;2023-03-16T14:24:39;94847.97;;;2.85;80.96
47763;BME280;33526;42.690;23.322;2023-03-16T14:27:13;94855.47;;;2.85;82.22